createdAt,value
2024-02-23T00:01:54.044Z,36.50
2024-02-23T00:04:21.667Z,36.05
2024-02-23T00:06:49.344Z,36.09
2024-02-23T00:09:15.979Z,36.58
2024-02-23T00:11:45.822Z,36.62
2024-02-23T00:14:14.156Z,36.24
2024-02-23T00:16:41.926Z,36.53
2024-02-23T00:19:09.592Z,36.53
2024-02-23T00:21:37.215Z,36.23
2024-02-23T00:24:04.914Z,36.02
2024-02-23T00:26:32.537Z,36.22
2024-02-23T00:29:00.167Z,36.47
2024-02-23T00:31:27.875Z,36.46
2024-02-23T00:33:55.446Z,36.10
2024-02-23T00:36:23.017Z,36.45
2024-02-23T00:38:50.584Z,36.14
2024-02-23T00:41:18.170Z,36.32
2024-02-23T00:43:45.800Z,35.99
2024-02-23T00:46:15.428Z,36.29
2024-02-23T00:48:44.169Z,36.71
2024-02-23T00:51:11.774Z,36.52
2024-02-23T00:53:39.341Z,36.18
2024-02-23T00:56:06.942Z,36.41
2024-02-23T00:58:34.613Z,36.48
2024-02-23T01:01:02.292Z,36.14
2024-02-23T01:03:30.068Z,36.13
2024-02-23T01:05:57.777Z,36.58
2024-02-23T01:08:25.456Z,36.56
2024-02-23T01:10:53.148Z,36.04
2024-02-23T01:13:20.758Z,36.49
2024-02-23T01:15:48.381Z,36.26
2024-02-23T01:18:15.998Z,36.32
2024-02-23T01:20:43.598Z,36.58
2024-02-23T01:23:11.174Z,36.28
2024-02-23T01:25:38.751Z,36.75
2024-02-23T01:28:06.415Z,36.18
2024-02-23T01:30:33.996Z,36.15
2024-02-23T01:33:01.827Z,35.98
2024-02-23T01:35:30.295Z,36.63
2024-02-23T01:37:57.895Z,36.38
2024-02-23T01:40:25.602Z,36.63
2024-02-23T01:42:53.160Z,36.34
2024-02-23T01:45:20.822Z,36.29
2024-02-23T01:47:48.372Z,36.52
2024-02-23T01:50:16.688Z,36.71
2024-02-23T01:52:44.349Z,36.76
2024-02-23T01:55:11.916Z,36.74
2024-02-23T01:57:49.519Z,36.82
2024-02-23T02:00:18.165Z,36.63
2024-02-23T02:02:45.769Z,36.77
2024-02-23T02:05:13.573Z,36.20
2024-02-23T02:07:41.155Z,36.41
2024-02-23T02:10:08.815Z,36.26
2024-02-23T02:12:36.369Z,36.26
2024-02-23T02:15:03.937Z,36.66
2024-02-23T02:17:34.164Z,36.73
2024-02-23T02:20:05.401Z,36.26
2024-02-23T02:22:33.070Z,36.73
2024-02-23T02:25:00.651Z,36.60
2024-02-23T02:27:28.301Z,36.20
2024-02-23T02:29:55.881Z,36.34
2024-02-23T02:32:23.480Z,36.65
2024-02-23T02:34:51.154Z,36.43
2024-02-23T02:37:18.751Z,36.77
2024-02-23T02:39:46.297Z,36.56
2024-02-23T02:42:13.885Z,36.56
2024-02-23T02:44:41.510Z,36.69
2024-02-23T02:47:09.221Z,36.83
2024-02-23T02:49:36.834Z,36.79
2024-02-23T02:52:04.505Z,36.98
2024-02-23T02:54:32.190Z,36.84
2024-02-23T02:56:59.849Z,36.83
2024-02-23T02:59:28.734Z,36.95
2024-02-23T03:01:58.329Z,36.50
2024-02-23T03:04:26.029Z,36.99
2024-02-23T03:06:53.670Z,36.78
2024-02-23T03:09:21.243Z,36.84
2024-02-23T03:11:49.077Z,36.55
2024-02-23T03:14:19.371Z,36.51
2024-02-23T03:16:48.834Z,37.01
2024-02-23T03:19:16.867Z,36.51
2024-02-23T03:21:44.466Z,36.77
2024-02-23T03:24:12.093Z,36.84
2024-02-23T03:26:40.043Z,36.88
2024-02-23T03:29:07.731Z,37.08
2024-02-23T03:31:35.317Z,36.50
2024-02-23T03:34:02.914Z,36.90
2024-02-23T03:36:30.511Z,36.54
2024-02-23T03:38:58.413Z,36.91
2024-02-23T03:41:26.114Z,36.65
2024-02-23T03:43:53.834Z,37.17
2024-02-23T03:46:22.470Z,36.99
2024-02-23T03:48:50.545Z,37.06
2024-02-23T03:51:18.169Z,36.89
2024-02-23T03:53:45.789Z,36.96
2024-02-23T03:56:13.416Z,37.13
2024-02-23T03:58:41.054Z,36.74
2024-02-23T04:01:08.663Z,36.81
2024-02-23T04:03:36.631Z,36.61
2024-02-23T04:06:04.342Z,36.76
2024-02-23T04:08:32.624Z,36.98
2024-02-23T04:11:00.376Z,37.19
2024-02-23T04:13:27.974Z,37.22
2024-02-23T04:15:55.601Z,37.21
2024-02-23T04:18:23.281Z,37.25
2024-02-23T04:20:50.843Z,37.21
2024-02-23T04:23:18.500Z,36.99
2024-02-23T04:25:46.087Z,37.10
2024-02-23T04:28:13.760Z,36.84
2024-02-23T04:30:41.329Z,37.26
2024-02-23T04:33:08.990Z,37.36
2024-02-23T04:35:38.035Z,36.92
2024-02-23T04:38:05.769Z,36.96
2024-02-23T04:40:33.453Z,37.14
2024-02-23T04:43:01.324Z,36.91
2024-02-23T04:45:28.946Z,37.41
2024-02-23T04:47:56.584Z,37.28
2024-02-23T04:50:24.490Z,37.30
2024-02-23T04:52:52.264Z,37.48
2024-02-23T04:55:19.918Z,37.16
2024-02-23T04:57:47.467Z,37.42
2024-02-23T05:00:15.045Z,37.44
2024-02-23T05:02:42.617Z,37.51
2024-02-23T05:05:10.261Z,37.52
2024-02-23T05:07:38.092Z,37.21
2024-02-23T05:10:06.032Z,37.66
2024-02-23T05:12:33.630Z,37.24
2024-02-23T05:15:01.262Z,37.57
2024-02-23T05:17:28.927Z,37.97
2024-02-23T05:19:56.660Z,37.33
2024-02-23T05:22:24.220Z,37.50
2024-02-23T05:24:51.785Z,37.87
2024-02-23T05:27:19.380Z,37.51
2024-02-23T05:29:46.929Z,37.30
2024-02-23T05:32:14.616Z,37.39
2024-02-23T05:34:42.277Z,37.23
2024-02-23T05:37:09.900Z,37.67
2024-02-23T05:39:38.549Z,37.80
2024-02-23T05:42:06.098Z,37.27
2024-02-23T05:44:33.730Z,37.67
2024-02-23T05:47:01.358Z,37.45
2024-02-23T05:49:29.013Z,37.74
2024-02-23T05:51:57.209Z,37.03
2024-02-23T05:54:24.783Z,37.40
2024-02-23T05:56:52.334Z,37.12
2024-02-23T05:59:19.957Z,37.48
2024-02-23T06:01:47.492Z,37.16
2024-02-23T06:04:15.062Z,37.47
2024-02-23T06:06:42.795Z,37.24
2024-02-23T06:09:10.916Z,37.38
2024-02-23T06:11:38.707Z,36.84
2024-02-23T06:14:06.433Z,37.55
2024-02-23T06:16:34.004Z,37.16
2024-02-23T06:19:01.814Z,37.70
2024-02-23T06:21:29.400Z,37.10
2024-02-23T06:23:56.976Z,37.51
2024-02-23T06:26:24.583Z,37.48
2024-02-23T06:28:52.333Z,36.93
2024-02-23T06:31:20.014Z,36.32
2024-02-23T06:33:50.127Z,37.13
2024-02-23T06:36:18.002Z,37.26
2024-02-23T06:38:45.594Z,36.96
2024-02-23T06:41:13.238Z,37.25
2024-02-23T06:43:40.833Z,37.42
2024-02-23T06:46:08.469Z,37.49
2024-02-23T06:48:36.245Z,37.27
2024-02-23T06:51:04.399Z,37.26
2024-02-23T06:53:32.020Z,36.94
2024-02-23T06:56:00.253Z,37.31
2024-02-23T06:58:27.959Z,37.89
2024-02-23T07:00:55.565Z,37.44
2024-02-23T07:03:23.203Z,37.80
2024-02-23T07:05:51.621Z,37.93
2024-02-23T07:08:19.480Z,37.72
2024-02-23T07:10:47.283Z,37.32
2024-02-23T07:13:14.861Z,37.78
2024-02-23T07:15:42.443Z,37.28
2024-02-23T07:18:10.385Z,37.73
2024-02-23T07:20:38.347Z,37.55
2024-02-23T07:23:06.357Z,37.60
2024-02-23T07:25:33.998Z,37.43
2024-02-23T07:28:01.560Z,37.21
2024-02-23T07:30:29.113Z,37.06
2024-02-23T07:32:56.797Z,36.88
2024-02-23T07:35:24.428Z,37.66
2024-02-23T07:37:52.087Z,37.78
2024-02-23T07:40:22.414Z,37.35
2024-02-23T07:42:50.407Z,37.20
2024-02-23T07:45:18.029Z,37.40
2024-02-23T07:47:45.658Z,37.47
2024-02-23T07:50:14.082Z,37.57
2024-02-23T07:52:42.041Z,37.19
2024-02-23T07:55:09.685Z,37.47
2024-02-23T07:57:37.747Z,37.16
2024-02-23T08:00:05.595Z,37.21
2024-02-23T08:02:33.284Z,37.55
2024-02-23T08:05:02.126Z,37.51
2024-02-23T08:07:31.892Z,37.21
2024-02-23T08:09:59.554Z,37.59
2024-02-23T08:12:27.252Z,37.48
2024-02-23T08:14:55.237Z,37.68
2024-02-23T08:17:22.916Z,37.52
2024-02-23T08:19:50.568Z,37.33
2024-02-23T08:22:18.215Z,37.28
2024-02-23T08:24:46.063Z,37.34
2024-02-23T08:27:13.815Z,37.55
2024-02-23T08:29:42.573Z,37.38
2024-02-23T08:32:10.278Z,37.35
2024-02-23T08:34:37.875Z,37.45
2024-02-23T08:37:05.452Z,37.50
2024-02-23T08:39:33.061Z,37.32
2024-02-23T08:42:00.621Z,37.22
2024-02-23T08:44:28.293Z,37.04
2024-02-23T08:46:55.854Z,37.21
2024-02-23T08:49:23.549Z,36.96
2024-02-23T08:54:18.752Z,36.74
2024-02-23T08:56:47.287Z,37.46
2024-02-23T09:01:42.484Z,37.27
2024-02-23T09:04:10.075Z,37.08
2024-02-23T09:06:39.598Z,37.14
2024-02-23T09:09:07.904Z,36.85
2024-02-23T09:11:35.707Z,37.24
2024-02-23T09:14:03.401Z,37.19
2024-02-23T09:16:30.971Z,37.10
2024-02-23T09:18:58.552Z,36.49
2024-02-23T09:21:26.121Z,36.95
2024-02-23T09:23:53.690Z,37.36
2024-02-23T09:26:22.228Z,36.98
2024-02-23T09:28:49.826Z,37.09
2024-02-23T09:31:17.402Z,37.30
2024-02-23T09:33:45.417Z,36.81
2024-02-23T09:36:13.046Z,36.63
2024-02-23T09:38:40.695Z,37.03
2024-02-23T09:41:08.298Z,37.23
2024-02-23T09:43:35.904Z,37.35
2024-02-23T09:46:03.477Z,36.86
2024-02-23T09:48:34.897Z,37.40
2024-02-23T09:51:02.590Z,36.74
2024-02-23T09:53:30.610Z,37.11
2024-02-23T09:55:58.462Z,36.81
2024-02-23T09:58:27.768Z,36.71
2024-02-23T10:00:55.386Z,36.77
2024-02-23T10:03:27.619Z,36.62
2024-02-23T10:05:55.309Z,36.83
2024-02-23T10:08:23.109Z,36.67
2024-02-23T10:10:51.557Z,36.75
2024-02-23T10:13:19.202Z,36.57
2024-02-23T10:16:00.195Z,36.85
2024-02-23T10:18:34.338Z,37.04
2024-02-23T10:21:02.104Z,36.95
2024-02-23T10:23:35.253Z,36.84
2024-02-23T10:26:04.829Z,36.67
2024-02-23T10:28:32.372Z,37.13
2024-02-23T10:31:02.650Z,36.39
2024-02-23T10:33:30.286Z,36.42
2024-02-23T10:35:58.362Z,36.79
2024-02-23T10:38:26.136Z,36.63
2024-02-23T10:40:53.805Z,36.72
2024-02-23T10:43:21.422Z,36.96
2024-02-23T10:45:49.047Z,36.91
2024-02-23T10:48:17.049Z,36.88
2024-02-23T10:50:45.382Z,37.06
2024-02-23T10:53:13.038Z,36.67
2024-02-23T10:55:40.618Z,36.91
2024-02-23T10:58:08.968Z,36.52
2024-02-23T11:00:36.660Z,36.76
2024-02-23T11:03:04.599Z,36.71
2024-02-23T11:05:32.369Z,36.85
2024-02-23T11:08:00.135Z,36.56
2024-02-23T11:10:29.194Z,36.99
2024-02-23T11:12:56.953Z,36.82
2024-02-23T11:15:24.491Z,36.67
2024-02-23T11:17:52.258Z,36.61
2024-02-23T11:20:30.039Z,36.48
2024-02-23T11:22:59.420Z,36.36
2024-02-23T11:25:27.466Z,36.90
2024-02-23T11:27:55.094Z,36.65
2024-02-23T11:30:22.698Z,36.87
2024-02-23T11:32:52.789Z,36.06
2024-02-23T11:35:20.786Z,36.88
2024-02-23T11:37:48.382Z,36.87
2024-02-23T11:40:16.013Z,36.40
2024-02-23T11:42:44.371Z,36.61
2024-02-23T11:45:12.488Z,36.89
2024-02-23T11:47:40.278Z,36.77
2024-02-23T11:50:08.085Z,36.40
2024-02-23T11:52:35.712Z,36.78
2024-02-23T11:55:03.577Z,36.45
2024-02-23T11:57:39.489Z,36.51
2024-02-23T12:00:11.730Z,36.84
2024-02-23T12:02:39.380Z,36.59
2024-02-23T12:05:08.171Z,36.56
2024-02-23T12:07:36.052Z,36.32
2024-02-23T12:10:04.607Z,36.74
2024-02-23T12:12:32.207Z,36.71
2024-02-23T12:15:00.185Z,36.26
2024-02-23T12:17:28.799Z,36.29
2024-02-23T12:19:56.606Z,36.73
2024-02-23T12:22:24.228Z,36.67
2024-02-23T12:24:51.830Z,36.41
2024-02-23T12:27:19.707Z,36.55
2024-02-23T12:29:47.265Z,36.70
2024-02-23T12:32:14.874Z,36.53
2024-02-23T12:34:42.503Z,36.73
2024-02-23T12:37:10.088Z,36.50
2024-02-23T12:39:37.698Z,36.60
2024-02-23T12:42:05.301Z,36.79
2024-02-23T12:44:32.904Z,36.65
2024-02-23T12:47:00.548Z,36.49
2024-02-23T12:49:28.217Z,36.30
2024-02-23T12:51:55.834Z,36.62
2024-02-23T12:54:23.385Z,36.32
2024-02-23T12:56:51.035Z,36.65
2024-02-23T12:59:19.378Z,36.71
2024-02-23T13:01:49.377Z,36.33
2024-02-23T13:04:19.034Z,36.30
2024-02-23T13:06:46.711Z,36.67
2024-02-23T13:09:15.768Z,36.02
2024-02-23T13:11:43.548Z,36.56
2024-02-23T13:14:11.501Z,36.65
2024-02-23T13:16:39.110Z,36.19
2024-02-23T13:19:06.770Z,36.63
2024-02-23T13:21:34.651Z,36.58
2024-02-23T13:24:02.218Z,36.41
2024-02-23T13:26:29.802Z,36.17
2024-02-23T13:28:58.635Z,36.00
2024-02-23T13:31:26.235Z,36.42
2024-02-23T13:33:54.005Z,36.50
2024-02-23T13:36:21.645Z,36.41
2024-02-23T13:38:49.250Z,35.86
2024-02-23T13:41:16.938Z,36.75
2024-02-23T13:43:45.014Z,36.31
2024-02-23T13:46:12.602Z,36.30
2024-02-23T13:48:40.225Z,36.34
2024-02-23T13:51:07.934Z,36.48
2024-02-23T13:53:37.408Z,36.44
2024-02-23T13:56:05.188Z,36.62
2024-02-23T13:58:33.577Z,36.55
2024-02-23T14:01:01.201Z,36.85
2024-02-23T14:03:29.085Z,36.24
2024-02-23T14:05:56.749Z,36.59
2024-02-23T14:08:24.549Z,36.68
2024-02-23T14:10:52.160Z,36.62
2024-02-23T14:13:19.718Z,36.20
2024-02-23T14:15:47.476Z,36.36
2024-02-23T14:18:15.087Z,36.18
2024-02-23T14:20:42.696Z,36.45
2024-02-23T14:23:10.338Z,36.20
2024-02-23T14:25:37.933Z,36.09
2024-02-23T14:28:05.525Z,36.29
2024-02-23T14:30:33.086Z,36.23
2024-02-23T14:33:00.766Z,36.65
2024-02-23T14:35:28.360Z,36.29
2024-02-23T14:37:56.086Z,36.28
2024-02-23T14:40:23.765Z,36.86
2024-02-23T14:42:51.312Z,36.28
2024-02-23T14:45:18.882Z,36.37
2024-02-23T14:47:46.849Z,36.67
2024-02-23T14:50:14.716Z,36.28
2024-02-23T14:52:42.497Z,36.35
2024-02-23T14:55:12.568Z,36.43
2024-02-23T14:57:40.348Z,36.82
2024-02-23T15:00:08.044Z,36.18
2024-02-23T15:02:35.692Z,36.37
2024-02-23T15:05:03.741Z,36.74
2024-02-23T15:07:31.365Z,36.81
2024-02-23T15:09:58.949Z,36.66
2024-02-23T15:12:29.148Z,36.77
2024-02-23T15:14:56.746Z,36.63
2024-02-23T15:17:24.367Z,36.78
2024-02-23T15:19:52.006Z,36.83
2024-02-23T15:22:20.792Z,36.66
2024-02-23T15:24:50.537Z,36.37
2024-02-23T15:27:18.159Z,36.31
2024-02-23T15:29:45.741Z,36.34
2024-02-23T15:32:13.297Z,36.79
2024-02-23T15:34:40.909Z,36.70
2024-02-23T15:37:08.683Z,36.31
2024-02-23T15:39:36.264Z,36.58
2024-02-23T15:42:04.242Z,36.75
2024-02-23T15:44:32.027Z,36.57
2024-02-23T15:46:59.660Z,36.68
2024-02-23T15:49:44.819Z,36.80
2024-02-23T15:52:14.973Z,36.42
2024-02-23T15:54:42.867Z,36.69
2024-02-23T15:57:10.789Z,36.26
2024-02-23T15:59:39.010Z,36.73
2024-02-23T16:02:07.981Z,36.10
2024-02-23T16:04:35.638Z,36.98
2024-02-23T16:07:03.313Z,37.08
2024-02-23T16:09:31.524Z,36.83
2024-02-23T16:11:59.568Z,36.68
2024-02-23T16:14:27.520Z,36.56
2024-02-23T16:16:55.619Z,36.73
2024-02-23T16:19:23.846Z,36.60
2024-02-23T16:21:51.668Z,35.59
2024-02-23T16:24:19.325Z,36.43
2024-02-23T16:26:47.144Z,37.09
2024-02-23T16:29:14.798Z,37.18
2024-02-23T16:31:42.405Z,37.14
2024-02-23T16:34:10.043Z,37.05
2024-02-23T16:36:37.645Z,37.40
2024-02-23T16:39:08.589Z,36.91
2024-02-23T16:41:36.403Z,37.10
2024-02-23T16:44:05.094Z,36.76
2024-02-23T16:46:32.704Z,36.92
2024-02-23T16:49:05.244Z,37.10
2024-02-23T16:51:32.851Z,36.70
2024-02-23T16:54:00.576Z,36.44
2024-02-23T16:56:28.492Z,37.16
2024-02-23T16:58:56.200Z,37.53
2024-02-23T17:01:23.843Z,37.28
2024-02-23T17:03:51.614Z,37.03
2024-02-23T17:06:19.388Z,37.08
2024-02-23T17:08:48.890Z,36.97
2024-02-23T17:11:16.778Z,36.71
2024-02-23T17:13:45.223Z,37.02
2024-02-23T17:16:13.062Z,36.77
2024-02-23T17:18:40.613Z,36.69
2024-02-23T17:21:08.383Z,37.37
2024-02-23T17:23:36.046Z,37.50
2024-02-23T17:26:05.659Z,37.04
2024-02-23T17:28:35.011Z,37.28
2024-02-23T17:31:02.623Z,37.62
2024-02-23T17:33:30.371Z,37.54
2024-02-23T17:35:58.061Z,37.30
2024-02-23T17:38:25.648Z,37.18
2024-02-23T17:40:54.373Z,37.66
2024-02-23T17:43:22.912Z,37.06
2024-02-23T17:45:50.571Z,36.87
2024-02-23T17:48:18.241Z,37.40
2024-02-23T17:50:46.063Z,37.55
2024-02-23T17:53:14.016Z,37.75
2024-02-23T17:55:41.635Z,37.34
2024-02-23T17:58:15.960Z,36.59
2024-02-23T18:00:47.531Z,37.31
2024-02-23T18:03:15.920Z,37.70
2024-02-23T18:05:44.007Z,36.45
2024-02-23T18:08:12.270Z,37.00
2024-02-23T18:10:40.037Z,36.54
2024-02-23T18:13:07.696Z,36.84
2024-02-23T18:15:35.290Z,36.06
2024-02-23T18:18:03.109Z,37.10
2024-02-23T18:20:30.846Z,37.00
2024-02-23T18:22:58.712Z,37.76
2024-02-23T18:25:26.302Z,37.45
2024-02-23T18:27:53.994Z,36.92
2024-02-23T18:30:21.720Z,37.00
2024-02-23T18:32:49.361Z,37.06
2024-02-23T18:35:17.000Z,36.50
2024-02-23T18:37:47.149Z,37.20
2024-02-23T18:40:15.779Z,36.97
2024-02-23T18:42:43.357Z,36.52
2024-02-23T18:45:10.994Z,37.28
2024-02-23T18:47:38.767Z,37.58
2024-02-23T18:50:06.546Z,36.97
2024-02-23T18:52:34.317Z,37.03
2024-02-23T18:55:02.142Z,37.06
2024-02-23T18:57:30.462Z,36.25
2024-02-23T18:59:58.227Z,36.41
2024-02-23T19:02:25.840Z,37.40
2024-02-23T19:04:53.492Z,36.04
2024-02-23T19:07:21.054Z,36.72
2024-02-23T19:09:48.675Z,37.26
2024-02-23T19:12:16.327Z,37.27
2024-02-23T19:14:44.113Z,37.05
2024-02-23T19:17:12.933Z,36.65
2024-02-23T19:19:40.553Z,35.83
2024-02-23T19:22:08.148Z,36.93
2024-02-23T19:24:35.778Z,36.69
2024-02-23T19:27:03.420Z,36.67
2024-02-23T19:29:31.020Z,36.75
2024-02-23T19:31:58.924Z,36.73
2024-02-23T19:34:26.604Z,36.24
2024-02-23T19:36:55.324Z,36.97
2024-02-23T19:39:23.270Z,36.64
2024-02-23T19:41:50.888Z,36.73
2024-02-23T19:44:18.544Z,35.91
2024-02-23T19:46:46.912Z,36.25
2024-02-23T19:49:14.825Z,36.12
2024-02-23T19:51:42.492Z,37.02
2024-02-23T19:54:10.039Z,36.99
2024-02-23T19:56:37.691Z,36.42
2024-02-23T19:59:06.566Z,36.69
2024-02-23T20:01:34.132Z,36.06
2024-02-23T20:04:02.108Z,36.86
2024-02-23T20:06:29.713Z,36.79
2024-02-23T20:08:59.738Z,36.43
2024-02-23T20:11:27.456Z,37.02
2024-02-23T20:13:55.153Z,36.78
2024-02-23T20:16:24.350Z,36.24
2024-02-23T20:18:52.103Z,36.69
2024-02-23T20:21:19.705Z,36.79
2024-02-23T20:23:47.426Z,36.50
2024-02-23T20:26:15.287Z,36.38
2024-02-23T20:28:42.894Z,36.11
2024-02-23T20:31:10.451Z,37.02
2024-02-23T20:33:38.323Z,36.93
2024-02-23T20:36:06.084Z,36.59
2024-02-23T20:38:33.679Z,36.77
2024-02-23T20:41:01.513Z,36.76
2024-02-23T20:43:29.357Z,37.23
2024-02-23T20:45:58.025Z,36.72
2024-02-23T20:48:25.923Z,36.73
2024-02-23T20:50:53.614Z,37.02
2024-02-23T20:53:21.234Z,36.92
2024-02-23T20:55:51.151Z,37.24
2024-02-23T20:58:18.999Z,36.56
2024-02-23T21:00:48.692Z,36.86
2024-02-23T21:03:16.340Z,35.21
2024-02-23T21:05:43.996Z,36.49
2024-02-23T21:08:12.431Z,37.20
2024-02-23T21:10:40.137Z,36.89
2024-02-23T21:13:07.708Z,36.65
2024-02-23T21:15:35.343Z,37.31
2024-02-23T21:18:03.112Z,36.52
2024-02-23T21:20:34.098Z,36.91
2024-02-23T21:23:01.806Z,36.89
2024-02-23T21:25:29.530Z,37.30
2024-02-23T21:27:57.134Z,36.81
2024-02-23T21:30:24.869Z,36.33
2024-02-23T21:32:52.612Z,37.07
2024-02-23T21:35:21.232Z,36.85
2024-02-23T21:37:48.855Z,37.03
2024-02-23T21:40:17.448Z,37.42
2024-02-23T21:42:45.531Z,37.03
2024-02-23T21:45:13.093Z,36.30
2024-02-23T21:47:40.713Z,36.66
2024-02-23T21:50:09.471Z,36.88
2024-02-23T21:52:38.380Z,37.19
2024-02-23T21:55:06.240Z,36.62
2024-02-23T21:57:33.848Z,36.86
2024-02-23T22:00:01.406Z,36.98
2024-02-23T22:02:30.327Z,36.90
2024-02-23T22:04:58.405Z,37.48
2024-02-23T22:07:26.027Z,37.01
2024-02-23T22:09:56.671Z,36.36
2024-02-23T22:12:24.282Z,37.03
2024-02-23T22:14:52.225Z,36.56
2024-02-23T22:17:19.829Z,36.76
2024-02-23T22:19:48.524Z,36.54
2024-02-23T22:22:16.094Z,36.75
2024-02-23T22:24:43.798Z,36.38
2024-02-23T22:27:11.370Z,35.93
2024-02-23T22:29:38.995Z,36.99
2024-02-23T22:32:07.066Z,36.17
2024-02-23T22:34:34.852Z,36.10
2024-02-23T22:37:02.718Z,36.71
2024-02-23T22:39:30.280Z,35.18
2024-02-23T22:41:57.944Z,36.75
2024-02-23T22:44:25.657Z,36.17
2024-02-23T22:46:55.646Z,36.09
2024-02-23T22:49:23.466Z,36.82
2024-02-23T22:51:51.043Z,36.07
2024-02-23T22:54:18.807Z,35.99
2024-02-23T22:56:46.396Z,36.19
2024-02-23T22:59:14.089Z,37.17
2024-02-23T23:01:41.735Z,36.17
2024-02-23T23:04:09.315Z,35.97
2024-02-23T23:06:37.446Z,36.63
2024-02-23T23:09:09.677Z,36.37
2024-02-23T23:11:38.003Z,36.82
2024-02-23T23:14:05.832Z,36.44
2024-02-23T23:16:33.497Z,35.98
2024-02-23T23:19:01.131Z,36.53
2024-02-23T23:21:30.246Z,36.59
2024-02-23T23:23:57.803Z,36.46
2024-02-23T23:26:25.475Z,36.30
2024-02-23T23:28:53.033Z,36.50
2024-02-23T23:31:20.604Z,36.65
2024-02-23T23:33:48.221Z,36.42
2024-02-23T23:36:15.880Z,36.06
2024-02-23T23:38:43.960Z,36.36
2024-02-23T23:41:11.624Z,36.33
2024-02-23T23:43:39.218Z,36.61
2024-02-23T23:46:06.815Z,36.89
2024-02-23T23:48:34.421Z,36.34
2024-02-23T23:51:02.253Z,36.22
2024-02-23T23:53:30.043Z,36.63
2024-02-23T23:55:57.650Z,36.52
2024-02-23T23:58:25.222Z,36.06
